createdAt,value
2022-08-17T00:00:43.601Z,100.00
2022-08-17T00:03:22.945Z,100.00
2022-08-17T00:05:58.509Z,100.00
2022-08-17T00:08:34.477Z,100.00
2022-08-17T00:11:07.997Z,100.00
2022-08-17T00:13:43.725Z,100.00
2022-08-17T00:16:18.772Z,100.00
2022-08-17T00:18:53.788Z,100.00
2022-08-17T00:22:30.877Z,100.00
2022-08-17T00:24:33.081Z,100.00
2022-08-17T00:27:02.567Z,100.00
2022-08-17T00:29:32.066Z,100.00
2022-08-17T00:33:22.894Z,100.00
2022-08-17T00:34:52.933Z,100.00
2022-08-17T00:37:22.477Z,100.00
2022-08-17T00:39:53.344Z,100.00
2022-08-17T00:42:24.488Z,100.00
2022-08-17T00:44:55.722Z,100.00
2022-08-17T00:47:25.239Z,100.00
2022-08-17T00:49:55.014Z,100.00
2022-08-17T00:52:39.075Z,100.00
2022-08-17T00:55:16.834Z,100.00
2022-08-17T00:57:55.396Z,100.00
2022-08-17T01:00:30.693Z,100.00
2022-08-17T01:03:07.488Z,100.00
2022-08-17T01:05:42.180Z,100.00
2022-08-17T01:08:19.614Z,100.00
2022-08-17T01:11:00.380Z,100.00
2022-08-17T01:13:41.019Z,100.00
2022-08-17T01:16:20.177Z,100.00
2022-08-17T01:18:55.461Z,100.00
2022-08-17T01:21:37.346Z,100.00
2022-08-17T01:24:09.445Z,100.00
2022-08-17T01:26:40.927Z,100.00
2022-08-17T01:29:10.808Z,100.00
2022-08-17T01:31:49.816Z,100.00
2022-08-17T01:34:20.165Z,100.00
2022-08-17T01:36:51.482Z,100.00
2022-08-17T01:39:36.331Z,100.00
2022-08-17T01:42:12.500Z,100.00
2022-08-17T01:44:43.514Z,100.00
2022-08-17T01:47:13.148Z,100.00
2022-08-17T01:49:42.709Z,100.00
2022-08-17T01:52:13.802Z,100.00
2022-08-17T01:54:49.029Z,100.00
2022-08-17T01:57:18.564Z,100.00
2022-08-17T01:59:48.256Z,100.00
2022-08-17T02:02:30.557Z,100.00
2022-08-17T02:05:01.852Z,100.00
2022-08-17T02:07:31.393Z,100.00
2022-08-17T02:10:02.273Z,100.00
2022-08-17T02:12:38.225Z,100.00
2022-08-17T02:15:15.097Z,100.00
2022-08-17T02:17:45.994Z,100.00
2022-08-17T02:20:16.270Z,100.00
2022-08-17T02:23:09.300Z,100.00
2022-08-17T02:25:42.060Z,100.00
2022-08-17T02:28:12.336Z,100.00
2022-08-17T02:30:59.531Z,100.00
2022-08-17T02:33:42.816Z,100.00
2022-08-17T02:36:14.514Z,100.00
2022-08-17T02:38:44.703Z,100.00
2022-08-17T02:41:15.632Z,100.00
2022-08-17T02:43:45.257Z,100.00
2022-08-17T02:46:14.770Z,100.00
2022-08-17T02:48:44.386Z,100.00
2022-08-17T02:51:13.935Z,100.00
2022-08-17T02:53:43.586Z,100.00
2022-08-17T02:56:14.454Z,100.00
2022-08-17T02:58:43.929Z,100.00
2022-08-17T03:01:13.732Z,100.00
2022-08-17T03:03:43.606Z,100.00
2022-08-17T03:06:13.218Z,100.00
2022-08-17T03:08:42.724Z,100.00
2022-08-17T03:11:12.214Z,100.00
2022-08-17T03:13:43.132Z,100.00
2022-08-17T03:16:12.838Z,100.00
2022-08-17T03:18:42.376Z,100.00
2022-08-17T03:21:11.837Z,100.00
2022-08-17T03:23:42.204Z,100.00
2022-08-17T03:26:15.518Z,100.00
2022-08-17T03:28:47.223Z,100.00
2022-08-17T03:31:18.321Z,100.00
2022-08-17T03:33:47.905Z,100.00
2022-08-17T03:36:17.527Z,100.00
2022-08-17T03:38:46.997Z,100.00
2022-08-17T03:41:16.553Z,100.00
2022-08-17T03:43:47.417Z,100.00
2022-08-17T03:46:35.658Z,100.00
2022-08-17T03:49:25.565Z,100.00
2022-08-17T03:52:24.448Z,100.00
2022-08-17T03:55:11.444Z,100.00
2022-08-17T03:57:41.094Z,100.00
2022-08-17T04:00:14.550Z,100.00
2022-08-17T04:02:44.595Z,100.00
2022-08-17T04:05:14.954Z,100.00
2022-08-17T04:07:45.101Z,100.00
2022-08-17T04:10:15.016Z,100.00
2022-08-17T04:12:50.068Z,100.00
2022-08-17T04:15:21.351Z,100.00
2022-08-17T04:17:50.857Z,100.00
2022-08-17T04:20:24.396Z,100.00
2022-08-17T04:23:02.055Z,100.00
2022-08-17T04:25:36.329Z,100.00
2022-08-17T04:28:07.638Z,100.00
2022-08-17T04:30:48.728Z,100.00
2022-08-17T04:33:21.791Z,100.00
2022-08-17T04:35:53.947Z,100.00
2022-08-17T04:38:27.042Z,100.00
2022-08-17T04:41:15.504Z,100.00
2022-08-17T04:43:47.859Z,100.00
2022-08-17T04:46:22.760Z,100.00
2022-08-17T04:49:11.456Z,100.00
2022-08-17T04:51:54.463Z,100.00
2022-08-17T04:54:25.334Z,100.00
2022-08-17T04:56:55.008Z,100.00
2022-08-17T04:59:24.933Z,100.00
2022-08-17T05:01:55.878Z,100.00
2022-08-17T05:04:34.616Z,100.00
2022-08-17T05:07:05.251Z,100.00
2022-08-17T05:09:34.709Z,100.00
2022-08-17T05:12:05.960Z,100.00
2022-08-17T05:14:35.485Z,100.00
2022-08-17T05:17:10.867Z,100.00
2022-08-17T05:19:41.147Z,100.00
2022-08-17T05:22:10.654Z,100.00
2022-08-17T05:24:50.483Z,100.00
2022-08-17T05:27:23.656Z,100.00
2022-08-17T05:29:53.194Z,100.00
2022-08-17T05:32:37.275Z,100.00
2022-08-17T05:35:10.610Z,100.00
2022-08-17T05:37:40.088Z,100.00
2022-08-17T05:40:11.693Z,100.00
2022-08-17T05:42:41.376Z,100.00
2022-08-17T05:45:15.811Z,100.00
2022-08-17T05:47:48.329Z,100.00
2022-08-17T05:50:27.345Z,100.00
2022-08-17T05:53:11.301Z,100.00
2022-08-17T05:55:52.097Z,100.00
2022-08-17T05:58:33.825Z,100.00
2022-08-17T06:01:15.800Z,100.00
2022-08-17T06:04:02.118Z,100.00
2022-08-17T06:06:42.085Z,100.00
2022-08-17T06:09:33.835Z,100.00
2022-08-17T06:12:25.345Z,100.00
2022-08-17T06:15:24.615Z,100.00
2022-08-17T06:18:01.280Z,100.00
2022-08-17T06:20:47.338Z,100.00
2022-08-17T06:23:28.103Z,100.00
2022-08-17T06:26:06.999Z,100.00
2022-08-17T06:28:45.292Z,100.00
2022-08-17T06:31:33.504Z,100.00
2022-08-17T06:34:08.359Z,100.00
2022-08-17T06:36:57.252Z,100.00
2022-08-17T06:39:44.578Z,100.00
2022-08-17T06:42:54.688Z,100.00
2022-08-17T06:45:31.938Z,100.00
2022-08-17T06:48:11.741Z,100.00
2022-08-17T06:50:53.397Z,100.00
2022-08-17T06:53:29.597Z,100.00
2022-08-17T06:56:05.903Z,100.00
2022-08-17T06:58:37.340Z,100.00
2022-08-17T07:01:15.514Z,100.00
2022-08-17T07:03:56.005Z,100.00
2022-08-17T07:06:37.757Z,100.00
2022-08-17T07:09:18.096Z,100.00
2022-08-17T07:11:54.639Z,100.00
2022-08-17T07:14:37.625Z,100.00
2022-08-17T07:17:11.737Z,100.00
2022-08-17T07:19:44.359Z,100.00
2022-08-17T07:22:22.843Z,100.00
2022-08-17T07:24:58.388Z,100.00
2022-08-17T07:27:31.715Z,100.00
2022-08-17T07:30:11.103Z,100.00
2022-08-17T07:32:50.707Z,100.00
2022-08-17T07:35:23.572Z,100.00
2022-08-17T07:38:25.456Z,100.00
2022-08-17T07:41:07.497Z,100.00
2022-08-17T07:43:46.907Z,100.00
2022-08-17T07:46:39.545Z,100.00
2022-08-17T07:49:27.354Z,100.00
2022-08-17T07:52:24.815Z,100.00
2022-08-17T07:54:56.337Z,100.00
2022-08-17T07:57:36.862Z,100.00
2022-08-17T08:00:31.420Z,100.00
2022-08-17T08:03:16.548Z,100.00
2022-08-17T08:05:55.908Z,100.00
2022-08-17T08:08:34.188Z,100.00
2022-08-17T08:11:10.978Z,100.00
2022-08-17T08:13:45.518Z,100.00
2022-08-17T08:16:30.203Z,100.00
2022-08-17T08:19:02.695Z,100.00
2022-08-17T08:21:47.849Z,100.00
2022-08-17T08:24:47.570Z,100.00
2022-08-17T08:27:33.526Z,100.00
2022-08-17T08:30:11.695Z,100.00
2022-08-17T08:33:17.204Z,100.00
2022-08-17T08:35:53.986Z,100.00
2022-08-17T08:38:45.339Z,100.00
2022-08-17T08:41:34.031Z,97.88
2022-08-17T08:45:00.295Z,97.87
2022-08-17T08:47:46.444Z,96.36
2022-08-17T08:50:38.029Z,93.22
2022-08-17T08:53:28.929Z,91.29
2022-08-17T08:56:09.508Z,90.83
2022-08-17T08:58:50.497Z,90.21
2022-08-17T09:01:30.351Z,82.02
2022-08-17T09:05:02.738Z,82.73
2022-08-17T09:07:43.420Z,82.73
2022-08-17T09:10:25.392Z,83.49
2022-08-17T09:13:10.587Z,84.50
2022-08-17T09:15:46.319Z,79.39
2022-08-17T09:19:02.414Z,77.29
2022-08-17T09:21:25.053Z,74.39
2022-08-17T09:24:05.113Z,75.83
2022-08-17T09:26:48.810Z,74.96
2022-08-17T09:29:24.359Z,73.63
2022-08-17T09:31:58.449Z,72.42
2022-08-17T09:34:43.523Z,69.37
2022-08-17T09:37:26.330Z,67.74
2022-08-17T09:40:11.101Z,66.82
2022-08-17T09:42:50.111Z,61.66
2022-08-17T09:45:33.661Z,65.37
2022-08-17T09:48:14.287Z,64.56
2022-08-17T09:51:05.947Z,63.10
2022-08-17T09:53:40.663Z,64.44
2022-08-17T09:56:56.437Z,61.88
2022-08-17T09:59:56.248Z,60.80
2022-08-17T10:03:16.173Z,60.02
2022-08-17T10:05:56.565Z,59.41
2022-08-17T10:08:40.353Z,55.51
2022-08-17T10:11:48.165Z,57.28
2022-08-17T10:14:37.746Z,53.76
2022-08-17T10:17:24.782Z,55.41
2022-08-17T10:20:07.798Z,52.29
2022-08-17T10:23:15.004Z,54.12
2022-08-17T10:26:08.409Z,54.90
2022-08-17T10:28:48.193Z,53.05
2022-08-17T10:31:36.259Z,54.05
2022-08-17T10:34:43.871Z,53.69
2022-08-17T10:37:46.385Z,53.52
2022-08-17T10:40:26.511Z,52.94
2022-08-17T10:43:04.337Z,48.81
2022-08-17T10:45:47.691Z,52.75
2022-08-17T10:48:33.336Z,49.51
2022-08-17T10:51:10.278Z,51.04
2022-08-17T10:54:02.187Z,50.26
2022-08-17T10:56:51.369Z,49.86
2022-08-17T10:59:53.075Z,49.84
2022-08-17T11:02:34.999Z,48.82
2022-08-17T11:05:54.050Z,46.36
2022-08-17T11:09:28.861Z,46.26
2022-08-17T11:12:27.841Z,47.01
2022-08-17T11:15:21.943Z,45.95
2022-08-17T11:18:15.123Z,45.29
2022-08-17T11:21:40.218Z,46.07
2022-08-17T11:24:24.090Z,45.70
2022-08-17T11:27:13.488Z,46.05
2022-08-17T11:29:59.517Z,44.99
2022-08-17T11:32:48.097Z,43.26
2022-08-17T11:35:39.933Z,43.58
2022-08-17T11:38:25.281Z,42.80
2022-08-17T11:41:20.700Z,42.04
2022-08-17T11:44:48.060Z,42.54
2022-08-17T11:47:53.077Z,42.76
2022-08-17T11:51:06.345Z,40.34
2022-08-17T11:57:41.136Z,41.74
2022-08-17T12:00:56.706Z,40.30
2022-08-17T12:03:56.799Z,39.03
2022-08-17T12:06:48.282Z,37.63
2022-08-17T12:09:25.014Z,38.23
2022-08-17T12:12:13.242Z,38.53
2022-08-17T12:15:10.454Z,36.23
2022-08-17T12:17:42.931Z,36.52
2022-08-17T12:20:23.103Z,37.92
2022-08-17T12:23:06.936Z,35.05
2022-08-17T12:25:44.253Z,38.02
2022-08-17T12:28:27.886Z,38.51
2022-08-17T12:31:03.642Z,38.25
2022-08-17T12:33:33.332Z,37.62
2022-08-17T12:36:07.492Z,37.92
2022-08-17T12:38:40.944Z,37.93
2022-08-17T12:41:29.146Z,37.44
2022-08-17T12:44:02.634Z,38.35
2022-08-17T12:46:46.048Z,37.20
2022-08-17T12:49:31.217Z,37.45
2022-08-17T12:52:26.600Z,36.14
2022-08-17T12:55:02.239Z,35.87
2022-08-17T12:57:36.789Z,36.43
2022-08-17T13:00:17.760Z,34.94
2022-08-17T13:02:52.304Z,35.14
2022-08-17T13:05:28.622Z,35.15
2022-08-17T13:08:01.184Z,35.16
2022-08-17T13:10:36.254Z,37.44
2022-08-17T13:13:20.661Z,35.84
2022-08-17T13:15:57.107Z,35.52
2022-08-17T13:18:43.652Z,35.91
2022-08-17T13:21:27.208Z,35.35
2022-08-17T13:24:04.918Z,35.86
2022-08-17T13:26:40.904Z,36.94
2022-08-17T13:29:24.754Z,36.96
2022-08-17T13:32:13.498Z,35.50
2022-08-17T13:35:12.390Z,35.69
2022-08-17T13:37:41.019Z,35.96
2022-08-17T13:40:37.833Z,35.02
2022-08-17T13:43:10.087Z,35.88
2022-08-17T13:45:53.318Z,34.61
2022-08-17T13:48:32.043Z,35.72
2022-08-17T13:51:44.922Z,33.54
2022-08-17T13:54:31.213Z,34.97
2022-08-17T13:57:05.205Z,34.68
2022-08-17T13:59:53.553Z,33.43
2022-08-17T14:02:28.313Z,34.14
2022-08-17T14:05:00.506Z,34.73
2022-08-17T14:07:37.593Z,36.14
2022-08-17T14:10:15.416Z,35.68
2022-08-17T14:12:46.636Z,33.85
2022-08-17T14:15:22.233Z,34.22
2022-08-17T14:17:53.359Z,32.33
2022-08-17T14:20:24.528Z,31.14
2022-08-17T14:22:56.976Z,30.31
2022-08-17T14:25:30.064Z,31.43
2022-08-17T14:27:59.972Z,30.94
2022-08-17T14:30:31.844Z,31.26
2022-08-17T14:33:02.169Z,32.14
2022-08-17T14:35:31.917Z,32.08
2022-08-17T14:38:02.096Z,31.24
2022-08-17T14:40:33.364Z,30.28
2022-08-17T14:43:02.897Z,30.74
2022-08-17T14:45:33.927Z,27.97
2022-08-17T14:48:07.628Z,29.67
2022-08-17T14:50:41.237Z,30.37
2022-08-17T14:53:15.953Z,31.96
2022-08-17T14:55:46.852Z,29.39
2022-08-17T14:58:16.723Z,27.34
2022-08-17T15:00:50.913Z,28.11
2022-08-17T15:03:20.748Z,27.92
2022-08-17T15:05:50.389Z,27.78
2022-08-17T15:08:21.600Z,27.40
2022-08-17T15:10:52.550Z,27.59
2022-08-17T15:13:27.805Z,28.49
2022-08-17T15:16:00.310Z,27.10
2022-08-17T15:18:30.374Z,26.54
2022-08-17T15:21:00.349Z,25.91
2022-08-17T15:23:29.912Z,27.20
2022-08-17T15:25:59.927Z,28.42
2022-08-17T15:28:29.713Z,28.06
2022-08-17T15:31:00.598Z,27.99
2022-08-17T15:33:31.135Z,28.62
2022-08-17T15:36:06.865Z,29.49
2022-08-17T15:38:40.125Z,28.49
2022-08-17T15:41:15.102Z,28.65
2022-08-17T15:43:46.260Z,29.31
2022-08-17T15:46:20.942Z,28.49
2022-08-17T15:48:54.813Z,29.24
2022-08-17T15:51:27.755Z,29.98
2022-08-17T15:54:04.388Z,30.75
2022-08-17T15:56:47.114Z,31.55
2022-08-17T15:59:16.630Z,31.86
2022-08-17T16:03:13.251Z,32.19
2022-08-17T16:04:37.000Z,32.70
2022-08-17T16:07:10.453Z,32.93
2022-08-17T16:09:39.992Z,33.87
2022-08-17T16:12:13.669Z,34.15
2022-08-17T16:14:43.374Z,34.22
2022-08-17T16:17:39.098Z,33.93
2022-08-17T16:20:05.390Z,34.37
2022-08-17T16:22:38.941Z,34.66
2022-08-17T16:25:14.992Z,34.86
2022-08-17T16:27:45.806Z,35.08
2022-08-17T16:30:18.009Z,35.48
2022-08-17T16:32:52.912Z,35.78
2022-08-17T16:35:26.754Z,35.89
2022-08-17T16:37:59.371Z,35.94
2022-08-17T16:40:35.722Z,36.55
2022-08-17T16:43:10.433Z,37.33
2022-08-17T16:45:41.161Z,37.37
2022-08-17T16:48:12.020Z,37.41
2022-08-17T16:50:42.493Z,37.52
2022-08-17T16:53:32.365Z,37.82
2022-08-17T16:56:01.818Z,38.04
2022-08-17T16:58:31.406Z,38.55
2022-08-17T17:01:00.946Z,38.51
2022-08-17T17:03:33.138Z,39.09
2022-08-17T17:06:18.778Z,39.53
2022-08-17T17:08:58.354Z,39.58
2022-08-17T17:11:36.567Z,39.59
2022-08-17T17:14:11.935Z,39.61
2022-08-17T17:16:52.481Z,40.67
2022-08-17T17:19:35.335Z,44.82
2022-08-17T17:22:16.279Z,44.54
2022-08-17T17:24:59.549Z,45.68
2022-08-17T17:27:43.979Z,46.28
2022-08-17T17:30:20.715Z,47.25
2022-08-17T17:32:57.084Z,48.27
2022-08-17T17:35:35.917Z,48.02
2022-08-17T17:38:17.548Z,49.78
2022-08-17T17:40:51.854Z,51.83
2022-08-17T17:43:41.777Z,52.06
2022-08-17T17:46:26.777Z,52.65
2022-08-17T17:48:57.926Z,54.55
2022-08-17T17:52:09.111Z,55.16
2022-08-17T17:55:01.429Z,55.46
2022-08-17T17:57:50.978Z,56.03
2022-08-17T18:00:26.046Z,57.63
2022-08-17T18:03:26.285Z,60.65
2022-08-17T18:06:23.200Z,60.74
2022-08-17T18:09:12.082Z,60.83
2022-08-17T18:12:23.401Z,62.29
2022-08-17T18:15:29.604Z,65.84
2022-08-17T18:18:38.687Z,69.30
2022-08-17T18:21:19.221Z,71.97
2022-08-17T18:23:56.976Z,74.22
2022-08-17T18:26:46.858Z,78.53
2022-08-17T18:29:44.118Z,80.52
2022-08-17T18:32:38.076Z,82.53
2022-08-17T18:35:35.028Z,84.15
2022-08-17T18:38:29.505Z,85.52
2022-08-17T18:41:23.693Z,87.32
2022-08-17T18:44:17.778Z,88.02
2022-08-17T18:46:47.312Z,88.85
2022-08-17T18:49:30.004Z,92.00
2022-08-17T18:52:15.478Z,94.50
2022-08-17T18:55:09.120Z,95.23
2022-08-17T18:57:45.243Z,95.40
2022-08-17T19:00:36.870Z,95.90
2022-08-17T19:03:25.657Z,98.40
2022-08-17T19:06:17.617Z,99.88
2022-08-17T19:08:47.191Z,100.00
2022-08-17T19:11:28.654Z,100.00
2022-08-17T19:14:08.441Z,100.00
2022-08-17T19:16:50.111Z,100.00
2022-08-17T19:19:29.729Z,100.00
2022-08-17T19:22:10.995Z,100.00
2022-08-17T19:24:47.475Z,100.00
2022-08-17T19:27:24.045Z,100.00
2022-08-17T19:30:08.366Z,100.00
2022-08-17T19:32:38.629Z,100.00
2022-08-17T19:35:17.182Z,100.00
2022-08-17T19:38:04.781Z,100.00
2022-08-17T19:41:04.055Z,100.00
2022-08-17T19:44:27.085Z,100.00
2022-08-17T19:47:19.593Z,100.00
2022-08-17T19:50:11.592Z,100.00
2022-08-17T19:52:50.550Z,100.00
2022-08-17T19:55:31.665Z,100.00
2022-08-17T19:58:11.268Z,100.00
2022-08-17T20:00:52.723Z,100.00
2022-08-17T20:03:31.349Z,100.00
2022-08-17T20:06:13.767Z,100.00
2022-08-17T20:08:58.874Z,100.00
2022-08-17T20:11:38.988Z,100.00
2022-08-17T20:14:16.051Z,100.00
2022-08-17T20:16:46.426Z,100.00
2022-08-17T20:19:29.229Z,100.00
2022-08-17T20:22:10.861Z,100.00
2022-08-17T20:24:48.584Z,100.00
2022-08-17T20:27:31.320Z,100.00
2022-08-17T20:30:10.383Z,100.00
2022-08-17T20:32:55.392Z,100.00
2022-08-17T20:35:30.949Z,100.00
2022-08-17T20:38:05.142Z,100.00
2022-08-17T20:40:39.662Z,100.00
2022-08-17T20:44:02.569Z,100.00
2022-08-17T20:46:56.892Z,100.00
2022-08-17T20:49:52.506Z,100.00
2022-08-17T20:52:53.686Z,100.00
2022-08-17T20:55:55.780Z,100.00
2022-08-17T20:58:47.766Z,100.00
2022-08-17T21:01:36.630Z,100.00
2022-08-17T21:04:43.771Z,100.00
2022-08-17T21:07:30.007Z,100.00
2022-08-17T21:10:19.415Z,100.00
2022-08-17T21:12:55.793Z,100.00
2022-08-17T21:15:36.965Z,100.00
2022-08-17T21:18:15.885Z,100.00
2022-08-17T21:21:07.058Z,100.00
2022-08-17T21:24:09.910Z,100.00
2022-08-17T21:26:55.507Z,100.00
2022-08-17T21:29:31.805Z,100.00
2022-08-17T21:32:23.778Z,100.00
2022-08-17T21:35:29.965Z,100.00
2022-08-17T21:38:05.005Z,100.00
2022-08-17T21:40:36.241Z,100.00
2022-08-17T21:43:29.245Z,100.00
2022-08-17T21:46:09.294Z,100.00
2022-08-17T21:48:48.359Z,100.00
2022-08-17T21:51:25.206Z,100.00
2022-08-17T21:53:58.285Z,100.00
2022-08-17T21:56:32.942Z,100.00
2022-08-17T21:59:08.943Z,100.00
2022-08-17T22:01:42.918Z,100.00
2022-08-17T22:04:25.685Z,100.00
2022-08-17T22:06:57.221Z,100.00
2022-08-17T22:09:32.027Z,100.00
2022-08-17T22:12:09.099Z,100.00
2022-08-17T22:14:52.821Z,100.00
2022-08-17T22:17:27.340Z,100.00
2022-08-17T22:20:02.346Z,100.00
2022-08-17T22:22:59.777Z,100.00
2022-08-17T22:25:31.002Z,100.00
2022-08-17T22:28:03.834Z,100.00
2022-08-17T22:30:39.320Z,100.00
2022-08-17T22:33:40.627Z,100.00
2022-08-17T22:36:30.939Z,100.00
2022-08-17T22:39:03.536Z,100.00
2022-08-17T22:41:43.139Z,100.00
2022-08-17T22:44:24.308Z,100.00
2022-08-17T22:47:04.428Z,100.00
2022-08-17T22:49:53.881Z,100.00
2022-08-17T22:52:58.270Z,100.00
2022-08-17T22:55:49.460Z,100.00
2022-08-17T22:58:42.602Z,100.00
2022-08-17T23:01:28.151Z,100.00
2022-08-17T23:04:03.972Z,100.00
2022-08-17T23:06:38.317Z,100.00
2022-08-17T23:09:09.258Z,100.00
2022-08-17T23:11:49.102Z,100.00
2022-08-17T23:14:22.798Z,100.00
2022-08-17T23:16:52.542Z,100.00
2022-08-17T23:19:23.378Z,100.00
2022-08-17T23:21:54.147Z,100.00
2022-08-17T23:24:30.485Z,100.00
2022-08-17T23:27:00.137Z,100.00
2022-08-17T23:29:30.265Z,100.00
2022-08-17T23:32:01.363Z,100.00
2022-08-17T23:34:32.478Z,100.00
2022-08-17T23:37:02.215Z,100.00
2022-08-17T23:39:32.428Z,100.00
2022-08-17T23:42:07.833Z,100.00
2022-08-17T23:44:39.860Z,100.00
2022-08-17T23:47:09.706Z,100.00
2022-08-17T23:49:41.306Z,100.00
2022-08-17T23:52:15.008Z,100.00
2022-08-17T23:54:48.385Z,100.00
2022-08-17T23:57:33.892Z,100.00
